createdAt,value
2022-10-02T00:03:28.855Z,102794.91
2022-10-02T00:08:34.930Z,102786.84
2022-10-02T00:13:43.077Z,102782.31
2022-10-02T00:18:47.160Z,102783.19
2022-10-02T00:23:58.612Z,102792.09
2022-10-02T00:29:24.568Z,102782.44
2022-10-02T00:35:03.500Z,102777.06
2022-10-02T00:40:32.708Z,102777.94
2022-10-02T00:45:54.372Z,102783.41
2022-10-02T00:51:35.664Z,102779.00
2022-10-02T00:56:58.968Z,102772.66
2022-10-02T01:02:11.431Z,102778.88
2022-10-02T01:07:14.517Z,102772.66
2022-10-02T01:12:17.030Z,102774.38
2022-10-02T01:17:26.048Z,102777.06
2022-10-02T01:22:45.821Z,102773.53
2022-10-02T01:27:48.501Z,102761.88
2022-10-02T01:33:00.165Z,102769.97
2022-10-02T01:38:11.625Z,102761.06
2022-10-02T01:43:19.454Z,102762.78
2022-10-02T01:48:24.317Z,102753.88
2022-10-02T01:53:45.304Z,102752.06
2022-10-02T01:59:16.308Z,102753.13
2022-10-02T02:04:31.893Z,102748.63
2022-10-02T02:10:02.581Z,102748.63
2022-10-02T02:15:20.393Z,102735.34
2022-10-02T02:20:28.991Z,102733.41
2022-10-02T02:25:34.299Z,102735.22
2022-10-02T02:30:41.417Z,102734.25
2022-10-02T02:35:48.864Z,102729.88
2022-10-02T02:40:52.057Z,102724.50
2022-10-02T02:46:01.524Z,102726.31
2022-10-02T02:51:11.356Z,102722.69
2022-10-02T02:56:17.429Z,102732.53
2022-10-02T03:01:19.622Z,102726.31
2022-10-02T03:06:21.934Z,102728.16
2022-10-02T03:11:41.489Z,102729.00
2022-10-02T03:17:03.712Z,102725.59
2022-10-02T03:22:16.915Z,102727.28
2022-10-02T03:27:30.270Z,102721.94
2022-10-02T03:32:38.420Z,102726.44
2022-10-02T03:37:44.180Z,102724.59
2022-10-02T03:42:46.184Z,102735.34
2022-10-02T03:47:48.324Z,102737.16
2022-10-02T03:52:52.797Z,102724.59
2022-10-02T03:57:55.273Z,102717.66
2022-10-02T04:03:01.081Z,102722.06
2022-10-02T04:08:15.681Z,102724.75
2022-10-02T04:13:32.437Z,102711.34
2022-10-02T04:18:57.329Z,102713.16
2022-10-02T04:24:09.879Z,102718.28
2022-10-02T04:29:18.708Z,102710.47
2022-10-02T04:34:20.843Z,102716.69
2022-10-02T04:39:46.855Z,102713.28
2022-10-02T04:45:16.521Z,102714.13
2022-10-02T04:50:37.237Z,102712.31
2022-10-02T04:56:03.618Z,102723.03
2022-10-02T05:01:24.208Z,102721.22
2022-10-02T05:06:47.368Z,102719.50
2022-10-02T05:12:26.617Z,102726.78
2022-10-02T05:18:01.540Z,102728.50
2022-10-02T05:23:29.924Z,102724.00
2022-10-02T05:28:47.433Z,102727.63
2022-10-02T05:34:20.951Z,102739.34
2022-10-02T05:39:33.969Z,102740.09
2022-10-02T05:44:41.949Z,102731.19
2022-10-02T05:49:56.573Z,102747.28
2022-10-02T05:55:13.696Z,102752.63
2022-10-02T06:00:51.046Z,102755.31
2022-10-02T06:06:10.927Z,102755.41
2022-10-02T06:11:39.367Z,102758.97
2022-10-02T06:17:03.965Z,102755.31
2022-10-02T06:22:28.599Z,102748.78
2022-10-02T06:27:57.097Z,102765.28
2022-10-02T06:33:03.775Z,102748.22
2022-10-02T06:38:11.980Z,102759.81
2022-10-02T06:43:24.785Z,102758.97
2022-10-02T06:48:32.983Z,102756.28
2022-10-02T06:53:37.583Z,102763.47
2022-10-02T06:58:57.994Z,102760.78
2022-10-02T07:04:29.423Z,102757.25
2022-10-02T07:09:42.063Z,102754.56
2022-10-02T07:15:03.610Z,102759.94
2022-10-02T07:20:29.863Z,102762.59
2022-10-02T07:25:40.805Z,102759.94
2022-10-02T07:30:58.676Z,102765.19
2022-10-02T07:36:10.901Z,102771.50
2022-10-02T07:41:52.196Z,102780.53
2022-10-02T07:47:06.041Z,102788.56
2022-10-02T07:52:48.781Z,102789.41
2022-10-02T07:57:56.792Z,102787.59
2022-10-02T08:03:06.555Z,102784.19
2022-10-02T08:08:32.284Z,102792.09
2022-10-02T08:13:58.209Z,102783.94
2022-10-02T08:19:08.172Z,102767.09
2022-10-02T08:24:19.532Z,102782.22
2022-10-02T08:29:33.258Z,102768.81
2022-10-02T08:34:35.540Z,102771.50
2022-10-02T08:39:52.386Z,102763.47
2022-10-02T08:44:57.513Z,102760.78
2022-10-02T08:50:02.321Z,102767.88
2022-10-02T08:55:22.884Z,102761.53
2022-10-02T09:00:31.016Z,102768.72
2022-10-02T09:06:06.585Z,102756.16
2022-10-02T09:11:32.806Z,102761.53
2022-10-02T09:16:56.282Z,102750.81
2022-10-02T09:22:27.340Z,102752.53
2022-10-02T09:27:50.700Z,102755.22
2022-10-02T09:33:07.878Z,102742.66
2022-10-02T09:38:14.363Z,102753.38
2022-10-02T09:43:53.733Z,102765.94
2022-10-02T09:49:24.588Z,102764.09
2022-10-02T09:54:47.551Z,102769.34
2022-10-02T10:00:08.573Z,102765.81
2022-10-02T10:05:41.681Z,102762.03
2022-10-02T10:10:52.995Z,102762.03
2022-10-02T10:15:56.391Z,102772.66
2022-10-02T10:21:30.223Z,102773.72
2022-10-02T10:27:09.922Z,102763.88
2022-10-02T10:32:17.893Z,102764.63
2022-10-02T10:38:13.845Z,102762.03
2022-10-02T10:43:37.763Z,102758.50
2022-10-02T10:49:04.445Z,102759.25
2022-10-02T10:54:18.341Z,102754.69
2022-10-02T10:59:31.696Z,102740.41
2022-10-02T11:04:39.121Z,102738.44
2022-10-02T11:09:47.970Z,102742.84
2022-10-02T11:15:17.705Z,102741.13
2022-10-02T11:20:55.382Z,102729.44
2022-10-02T11:26:24.014Z,102717.84
2022-10-02T11:31:35.265Z,102730.28
2022-10-02T11:36:42.720Z,102723.97
2022-10-02T11:42:16.949Z,102714.19
2022-10-02T11:47:33.865Z,102704.34
2022-10-02T11:53:07.906Z,102702.63
2022-10-02T11:58:27.289Z,102699.81
2022-10-02T12:04:06.719Z,102703.38
2022-10-02T12:09:33.403Z,102690.81
2022-10-02T12:14:38.413Z,102695.31
2022-10-02T12:20:31.283Z,102689.97
2022-10-02T12:26:02.217Z,102680.81
2022-10-02T12:31:23.622Z,102674.56
2022-10-02T12:36:34.423Z,102675.44
2022-10-02T12:41:43.192Z,102675.22
2022-10-02T12:47:19.253Z,102659.22
2022-10-02T12:52:30.262Z,102659.13
2022-10-02T12:57:52.702Z,102659.97
2022-10-02T13:03:18.928Z,102643.88
2022-10-02T13:08:39.817Z,102633.16
2022-10-02T13:14:03.727Z,102634.72
2022-10-02T13:19:20.414Z,102615.97
2022-10-02T13:25:02.138Z,102606.09
2022-10-02T13:30:21.624Z,102581.72
2022-10-02T13:35:36.127Z,102592.66
2022-10-02T13:40:58.696Z,102584.50
2022-10-02T13:46:21.537Z,102579.16
2022-10-02T13:51:42.850Z,102570.13
2022-10-02T13:56:44.879Z,102556.59
2022-10-02T14:01:57.210Z,102551.94
2022-10-02T14:07:35.882Z,102537.84
2022-10-02T14:12:44.533Z,102530.50
2022-10-02T14:18:05.970Z,102531.50
2022-10-02T14:23:44.549Z,102536.00
2022-10-02T14:28:58.674Z,102527.81
2022-10-02T14:34:25.174Z,102526.00
2022-10-02T14:39:34.592Z,102524.16
2022-10-02T14:44:45.560Z,102524.41
2022-10-02T14:50:15.963Z,102521.47
2022-10-02T14:55:26.809Z,102522.34
2022-10-02T15:01:10.993Z,102516.97
2022-10-02T15:06:22.154Z,102515.03
2022-10-02T15:11:36.644Z,102515.03
2022-10-02T15:17:27.968Z,102513.19
2022-10-02T15:22:45.507Z,102512.34
2022-10-02T15:28:34.573Z,102509.41
2022-10-02T15:33:49.512Z,102504.03
2022-10-02T15:39:42.059Z,102508.69
2022-10-02T15:44:49.892Z,102504.03
2022-10-02T15:49:55.587Z,102486.00
2022-10-02T15:55:20.420Z,102489.75
2022-10-02T16:00:24.248Z,102482.56
2022-10-02T16:06:03.929Z,102486.84
2022-10-02T16:11:11.784Z,102482.34
2022-10-02T16:16:34.760Z,102476.13
2022-10-02T16:22:10.689Z,102471.50
2022-10-02T16:27:46.631Z,102475.00
2022-10-02T16:33:03.709Z,102465.28
2022-10-02T16:38:30.368Z,102462.44
2022-10-02T16:43:34.948Z,102455.25
2022-10-02T16:48:39.838Z,102453.53
2022-10-02T16:53:45.382Z,102455.25
2022-10-02T16:59:01.906Z,102457.22
2022-10-02T17:04:31.333Z,102450.84
2022-10-02T17:09:47.785Z,102453.53
2022-10-02T17:15:03.085Z,102447.19
2022-10-02T17:20:19.088Z,102447.19
2022-10-02T17:25:36.752Z,102447.19
2022-10-02T17:31:01.498Z,102448.16
2022-10-02T17:36:21.143Z,102449.03
2022-10-02T17:41:23.114Z,102449.88
2022-10-02T17:46:57.344Z,102447.19
2022-10-02T17:52:32.846Z,102448.91
2022-10-02T17:58:02.382Z,102448.91
2022-10-02T18:03:19.573Z,102448.06
2022-10-02T18:08:32.452Z,102448.91
2022-10-02T18:13:59.839Z,102447.19
2022-10-02T18:19:22.378Z,102447.34
2022-10-02T18:24:45.717Z,102431.97
2022-10-02T18:29:53.688Z,102438.28
2022-10-02T18:35:28.517Z,102427.56
2022-10-02T18:40:48.105Z,102433.06
2022-10-02T18:46:14.681Z,102442.69
2022-10-02T18:51:39.964Z,102442.69
2022-10-02T18:56:47.541Z,102447.19
2022-10-02T19:01:49.642Z,102447.19
2022-10-02T19:07:29.528Z,102455.25
2022-10-02T19:12:31.593Z,102449.78
2022-10-02T19:17:34.910Z,102448.06
2022-10-02T19:22:38.579Z,102457.94
2022-10-02T19:27:44.728Z,102462.44
2022-10-02T19:32:49.608Z,102463.28
2022-10-02T19:37:54.355Z,102464.16
2022-10-02T19:43:04.222Z,102459.66
2022-10-02T19:48:16.577Z,102457.94
2022-10-02T19:53:41.679Z,102468.66
2022-10-02T19:58:52.152Z,102468.66
2022-10-02T20:03:59.558Z,102476.72
2022-10-02T20:09:05.872Z,102478.53
2022-10-02T20:14:21.837Z,102478.53
2022-10-02T20:19:34.743Z,102484.75
2022-10-02T20:25:06.804Z,102478.53
2022-10-02T20:30:50.104Z,102478.69
2022-10-02T20:36:01.890Z,102474.03
2022-10-02T20:41:12.814Z,102470.50
2022-10-02T20:46:33.630Z,102473.19
2022-10-02T20:51:48.189Z,102467.81
2022-10-02T20:57:49.669Z,102468.81
2022-10-02T21:03:00.518Z,102472.31
2022-10-02T21:08:37.813Z,102474.19
2022-10-02T21:13:54.697Z,102462.59
2022-10-02T21:19:38.277Z,102467.09
2022-10-02T21:25:24.289Z,102460.75
2022-10-02T21:30:40.173Z,102452.72
2022-10-02T21:35:56.045Z,102444.66
2022-10-02T21:40:58.008Z,102450.03
2022-10-02T21:46:30.902Z,102445.63
2022-10-02T21:51:50.022Z,102444.78
2022-10-02T21:57:16.694Z,102453.81
2022-10-02T22:02:55.764Z,102450.16
2022-10-02T22:08:08.363Z,102443.81
2022-10-02T22:13:33.311Z,102444.03
2022-10-02T22:19:01.981Z,102443.94
2022-10-02T22:24:19.234Z,102438.56
2022-10-02T22:29:42.872Z,102442.22
2022-10-02T22:35:07.107Z,102443.19
2022-10-02T22:40:16.991Z,102450.16
2022-10-02T22:45:33.600Z,102449.41
2022-10-02T22:50:45.607Z,102450.16
2022-10-02T22:55:55.875Z,102447.59
2022-10-02T23:01:13.544Z,102443.06
2022-10-02T23:06:31.979Z,102436.09
2022-10-02T23:11:55.367Z,102424.28
2022-10-02T23:17:16.042Z,102405.63
2022-10-02T23:22:26.678Z,102399.28
2022-10-02T23:27:35.143Z,102397.47
2022-10-02T23:32:37.023Z,102384.03
2022-10-02T23:37:48.084Z,102376.84
2022-10-02T23:42:55.416Z,102379.66
2022-10-02T23:48:06.147Z,102368.06
2022-10-02T23:53:14.064Z,102361.72
2022-10-02T23:58:41.991Z,102349.41
